Time,TemperatureF,DewpointF,PressureIn,WindDirection,WindDirectionDegrees,WindSpeedMPH,WindSpeedGustMPH,Humidity,HourlyPrecipIn,Conditions,Clouds,dailyrainin,SolarRadiationWatts/m^2,SoftwareType,DateUTC
2013-02-25 00:01:00,18.0,8.0,-100.00,NE,34,12.0,18.0,63,0.00,,,0.14,0.000000,,2013-02-25 07:01:00,
2013-02-25 00:11:00,18.0,8.0,-100.00,NE,34,12.0,18.0,63,0.00,,,0.14,0.000000,,2013-02-25 07:11:00,
2013-02-25 00:21:00,18.0,8.0,-100.00,NE,34,12.0,18.0,63,0.00,,,0.14,0.000000,,2013-02-25 07:21:00,
2013-02-25 00:31:00,18.0,8.0,-100.00,NE,34,12.0,18.0,63,0.00,,,0.14,0.000000,,2013-02-25 07:31:00,
2013-02-25 00:52:00,17.0,8.0,-100.00,NNE,32,7.0,12.0,67,0.00,,,0.14,0.000000,,2013-02-25 07:52:00,
2013-02-25 01:01:00,17.0,8.0,-100.00,NNE,32,7.0,12.0,67,0.00,,,0.14,0.000000,,2013-02-25 08:01:00,
2013-02-25 01:11:00,17.0,8.0,-100.00,NNE,32,7.0,12.0,67,0.00,,,0.14,0.000000,,2013-02-25 08:11:00,
2013-02-25 01:21:00,17.0,8.0,-100.00,NNE,32,7.0,12.0,67,0.00,,,0.14,0.000000,,2013-02-25 08:21:00,
2013-02-25 01:31:00,17.0,8.0,-100.00,NNE,32,7.0,12.0,67,0.00,,,0.14,0.000000,,2013-02-25 08:31:00,
2013-02-25 01:52:00,17.0,6.0,-100.00,NNE,17,12.0,17.0,61,0.00,,,0.14,0.000000,,2013-02-25 08:52:00,
2013-02-25 02:01:00,17.0,6.0,-100.00,NNE,17,12.0,17.0,61,0.00,,,0.14,0.000000,,2013-02-25 09:01:00,
2013-02-25 02:12:00,17.0,6.0,-100.00,NNE,17,12.0,17.0,61,0.00,,,0.14,0.000000,,2013-02-25 09:12:00,
2013-02-25 02:21:00,17.0,6.0,-100.00,NNE,17,12.0,17.0,61,0.00,,,0.14,0.000000,,2013-02-25 09:21:00,
2013-02-25 02:31:00,17.0,6.0,-100.00,NNE,17,12.0,17.0,61,0.00,,,0.14,0.000000,,2013-02-25 09:31:00,
2013-02-25 02:52:00,15.0,7.0,-100.00,NE,55,10.0,23.0,70,0.00,,,0.14,0.000000,,2013-02-25 09:52:00,
2013-02-25 03:01:00,15.0,7.0,-100.00,NE,55,10.0,23.0,70,0.00,,,0.14,0.000000,,2013-02-25 10:01:00,
2013-02-25 03:11:00,15.0,7.0,-100.00,NE,55,10.0,23.0,70,0.00,,,0.14,0.000000,,2013-02-25 10:11:00,
2013-02-25 03:21:00,15.0,7.0,-100.00,NE,55,10.0,23.0,70,0.00,,,0.14,0.000000,,2013-02-25 10:21:00,
2013-02-25 03:31:00,15.0,7.0,-100.00,NE,55,10.0,23.0,70,0.00,,,0.14,0.000000,,2013-02-25 10:31:00,
2013-02-25 03:52:00,14.0,7.0,-100.00,NE,50,9.0,16.0,73,0.00,,,0.14,0.000000,,2013-02-25 10:52:00,
2013-02-25 04:01:00,14.0,7.0,-100.00,NE,50,9.0,16.0,73,0.00,,,0.14,0.000000,,2013-02-25 11:01:00,
2013-02-25 04:11:00,14.0,7.0,-100.00,NE,50,9.0,16.0,73,0.00,,,0.14,0.000000,,2013-02-25 11:11:00,
2013-02-25 04:21:00,14.0,7.0,-100.00,NE,50,9.0,16.0,73,0.00,,,0.14,0.000000,,2013-02-25 11:21:00,
2013-02-25 04:31:00,14.0,7.0,-100.00,NE,50,9.0,16.0,73,0.00,,,0.14,0.000000,,2013-02-25 11:31:00,
2013-02-25 04:52:00,15.0,8.0,-100.00,NE,35,9.0,11.0,72,0.00,,,0.14,0.000000,,2013-02-25 11:52:00,
2013-02-25 05:01:00,15.0,8.0,-100.00,NE,35,9.0,11.0,72,0.00,,,0.14,0.000000,,2013-02-25 12:01:00,
2013-02-25 05:11:00,15.0,8.0,-100.00,NE,35,9.0,11.0,72,0.00,,,0.14,0.000000,,2013-02-25 12:11:00,
2013-02-25 05:21:00,15.0,8.0,-100.00,NE,35,9.0,11.0,72,0.00,,,0.14,0.000000,,2013-02-25 12:21:00,
2013-02-25 05:32:00,15.0,8.0,-100.00,NE,35,9.0,11.0,72,0.00,,,0.14,0.000000,,2013-02-25 12:32:00,
2013-02-25 05:55:00,14.0,7.0,-100.00,NE,50,8.0,10.0,72,0.00,,,0.14,0.000000,,2013-02-25 12:55:00,
2013-02-25 06:02:00,14.0,7.0,-100.00,NE,50,8.0,10.0,72,0.00,,,0.14,0.000000,,2013-02-25 13:02:00,
2013-02-25 06:12:00,14.0,7.0,-100.00,NE,50,8.0,10.0,72,0.00,,,0.14,0.000000,,2013-02-25 13:12:00,
2013-02-25 06:22:00,14.0,7.0,-100.00,NE,50,8.0,10.0,72,0.00,,,0.14,0.000000,,2013-02-25 13:22:00,
2013-02-25 06:31:00,14.0,7.0,-100.00,NE,50,8.0,10.0,72,0.00,,,0.14,0.000000,,2013-02-25 13:31:00,
2013-02-25 06:52:00,10.0,6.0,-100.00,NE,43,7.0,13.0,84,0.00,,,0.14,0.000000,,2013-02-25 13:52:00,
2013-02-25 07:02:00,10.0,6.0,-100.00,NE,43,7.0,13.0,84,0.00,,,0.14,0.000000,,2013-02-25 14:02:00,
2013-02-25 07:21:00,10.0,6.0,-100.00,NE,43,7.0,13.0,84,0.00,,,0.14,0.000000,,2013-02-25 14:21:00,
2013-02-25 07:31:00,10.0,6.0,-100.00,NE,43,7.0,13.0,84,0.00,,,0.14,0.000000,,2013-02-25 14:31:00,
2013-02-25 07:52:00,14.0,7.0,-100.00,NE,43,6.0,10.0,74,0.00,,,0.14,43.000000,,2013-02-25 14:52:00,
2013-02-25 08:02:00,14.0,7.0,-100.00,NE,43,6.0,10.0,74,0.00,,,0.14,43.000000,,2013-02-25 15:02:00,
2013-02-25 08:11:00,14.0,7.0,-100.00,NE,43,6.0,10.0,74,0.00,,,0.14,43.000000,,2013-02-25 15:11:00,
2013-02-25 08:21:00,14.0,7.0,-100.00,NE,43,6.0,10.0,74,0.00,,,0.14,43.000000,,2013-02-25 15:21:00,
2013-02-25 08:32:00,14.0,7.0,-100.00,NE,43,6.0,10.0,74,0.00,,,0.14,43.000000,,2013-02-25 15:32:00,
2013-02-25 08:52:00,15.0,6.0,-100.00,East,81,9.0,11.0,68,0.00,,,0.14,247.000000,,2013-02-25 15:52:00,
2013-02-25 09:01:00,15.0,6.0,-100.00,East,81,9.0,11.0,68,0.00,,,0.14,247.000000,,2013-02-25 16:01:00,
2013-02-25 09:11:00,15.0,6.0,-100.00,East,81,9.0,11.0,68,0.00,,,0.14,247.000000,,2013-02-25 16:11:00,
2013-02-25 09:21:00,15.0,6.0,-100.00,East,81,9.0,11.0,68,0.00,,,0.14,247.000000,,2013-02-25 16:21:00,
2013-02-25 09:31:00,15.0,6.0,-100.00,East,81,9.0,11.0,68,0.00,,,0.14,247.000000,,2013-02-25 16:31:00,
2013-02-25 09:52:00,19.0,8.0,-100.00,NE,50,5.0,10.0,61,0.00,,,0.14,445.000000,,2013-02-25 16:52:00,
2013-02-25 10:01:00,19.0,8.0,-100.00,NE,50,5.0,10.0,61,0.00,,,0.14,445.000000,,2013-02-25 17:01:00,
2013-02-25 10:11:00,19.0,8.0,-100.00,NE,50,5.0,10.0,61,0.00,,,0.14,445.000000,,2013-02-25 17:11:00,
2013-02-25 10:21:00,19.0,8.0,-100.00,NE,50,5.0,10.0,61,0.00,,,0.14,445.000000,,2013-02-25 17:21:00,
2013-02-25 10:31:00,19.0,8.0,-100.00,NE,50,5.0,10.0,61,0.00,,,0.14,445.000000,,2013-02-25 17:31:00,
2013-02-25 10:52:00,27.0,9.0,-100.00,North,353,2.0,7.0,46,0.00,,,0.04,606.000000,,2013-02-25 17:52:00,
2013-02-25 11:01:00,27.0,9.0,-100.00,North,353,2.0,7.0,46,0.00,,,0.04,606.000000,,2013-02-25 18:01:00,
2013-02-25 11:12:00,27.0,9.0,-100.00,North,353,2.0,7.0,46,0.00,,,0.04,606.000000,,2013-02-25 18:12:00,
2013-02-25 11:21:00,27.0,9.0,-100.00,North,353,2.0,7.0,46,0.00,,,0.04,606.000000,,2013-02-25 18:21:00,
2013-02-25 11:32:00,27.0,9.0,-100.00,North,353,2.0,7.0,46,0.00,,,0.04,606.000000,,2013-02-25 18:32:00,
2013-02-25 11:52:00,29.0,11.0,-100.00,NNE,13,3.0,5.0,47,0.00,,,0.01,727.000000,,2013-02-25 18:52:00,
2013-02-25 12:01:00,29.0,11.0,-100.00,NNE,13,3.0,5.0,47,0.00,,,0.01,727.000000,,2013-02-25 19:01:00,
2013-02-25 12:11:00,29.0,11.0,-100.00,NNE,13,3.0,5.0,47,0.00,,,0.01,727.000000,,2013-02-25 19:11:00,
2013-02-25 12:21:00,29.0,11.0,-100.00,NNE,13,3.0,5.0,47,0.00,,,0.01,727.000000,,2013-02-25 19:21:00,
2013-02-25 12:31:00,29.0,11.0,-100.00,NNE,13,3.0,5.0,47,0.00,,,0.01,727.000000,,2013-02-25 19:31:00,
2013-02-25 12:52:00,29.0,12.0,-100.00,NE,42,3.0,6.0,48,0.00,,,0.00,833.000000,,2013-02-25 19:52:00,
2013-02-25 13:01:00,29.0,12.0,-100.00,NE,42,3.0,6.0,48,0.00,,,0.00,833.000000,,2013-02-25 20:01:00,
2013-02-25 13:11:00,29.0,12.0,-100.00,NE,42,3.0,6.0,48,0.00,,,0.00,833.000000,,2013-02-25 20:11:00,
2013-02-25 13:21:00,29.0,12.0,-100.00,NE,42,3.0,6.0,48,0.00,,,0.00,833.000000,,2013-02-25 20:21:00,
2013-02-25 13:31:00,29.0,12.0,-100.00,NE,42,3.0,6.0,48,0.00,,,0.00,833.000000,,2013-02-25 20:31:00,
2013-02-25 13:52:00,34.0,13.0,-100.00,ENE,59,2.0,5.0,41,0.00,,,0.00,819.000000,,2013-02-25 20:52:00,
2013-02-25 14:01:00,34.0,13.0,-100.00,ENE,59,2.0,5.0,41,0.00,,,0.00,819.000000,,2013-02-25 21:01:00,
2013-02-25 14:11:00,34.0,13.0,-100.00,ENE,59,2.0,5.0,41,0.00,,,0.00,819.000000,,2013-02-25 21:11:00,
2013-02-25 14:21:00,34.0,13.0,-100.00,ENE,59,2.0,5.0,41,0.00,,,0.00,819.000000,,2013-02-25 21:21:00,
2013-02-25 14:31:00,34.0,13.0,-100.00,ENE,59,2.0,5.0,41,0.00,,,0.00,819.000000,,2013-02-25 21:31:00,
2013-02-25 14:52:00,36.0,10.0,-100.00,East,81,2.0,5.0,33,0.00,,,0.00,737.000000,,2013-02-25 21:52:00,
2013-02-25 15:01:00,36.0,10.0,-100.00,East,81,2.0,5.0,33,0.00,,,0.00,737.000000,,2013-02-25 22:01:00,
2013-02-25 15:11:00,36.0,10.0,-100.00,East,81,2.0,5.0,33,0.00,,,0.00,737.000000,,2013-02-25 22:11:00,
2013-02-25 15:21:00,36.0,10.0,-100.00,East,81,2.0,5.0,33,0.00,,,0.00,737.000000,,2013-02-25 22:21:00,
2013-02-25 15:31:00,36.0,10.0,-100.00,East,81,2.0,5.0,33,0.00,,,0.00,737.000000,,2013-02-25 22:31:00,
2013-02-25 15:52:00,31.0,14.0,-100.00,ENE,77,6.0,9.0,48,0.00,,,0.00,590.000000,,2013-02-25 22:52:00,
2013-02-25 16:01:00,31.0,14.0,-100.00,ENE,77,6.0,9.0,48,0.00,,,0.00,590.000000,,2013-02-25 23:01:00,
2013-02-25 16:11:00,31.0,14.0,-100.00,ENE,77,6.0,9.0,48,0.00,,,0.00,590.000000,,2013-02-25 23:11:00,
2013-02-25 16:22:00,31.0,14.0,-100.00,ENE,77,6.0,9.0,48,0.00,,,0.00,590.000000,,2013-02-25 23:22:00,
2013-02-25 16:31:00,31.0,14.0,-100.00,ENE,77,6.0,9.0,48,0.00,,,0.00,590.000000,,2013-02-25 23:31:00,
2013-02-25 16:52:00,31.0,11.0,-100.00,East,96,4.0,6.0,43,0.00,,,0.00,388.000000,,2013-02-25 23:52:00,
2013-02-25 17:01:00,31.0,11.0,-100.00,East,96,4.0,6.0,43,0.00,,,0.00,388.000000,,2013-02-26 00:01:00,
2013-02-25 17:11:00,31.0,11.0,-100.00,East,96,4.0,6.0,43,0.00,,,0.00,388.000000,,2013-02-26 00:11:00,
2013-02-25 17:21:00,31.0,11.0,-100.00,East,96,4.0,6.0,43,0.00,,,0.00,388.000000,,2013-02-26 00:21:00,
2013-02-25 17:32:00,31.0,11.0,-100.00,East,96,4.0,6.0,43,0.00,,,0.00,388.000000,,2013-02-26 00:32:00,
2013-02-25 17:52:00,30.0,11.0,-100.00,SW,236,5.0,10.0,44,0.00,,,0.00,173.000000,,2013-02-26 00:52:00,
2013-02-25 18:02:00,30.0,11.0,-100.00,SW,236,5.0,10.0,44,0.00,,,0.00,173.000000,,2013-02-26 01:02:00,
2013-02-25 18:11:00,30.0,11.0,-100.00,SW,236,5.0,10.0,44,0.00,,,0.00,173.000000,,2013-02-26 01:11:00,
2013-02-25 18:21:00,30.0,11.0,-100.00,SW,236,5.0,10.0,44,0.00,,,0.00,173.000000,,2013-02-26 01:21:00,
2013-02-25 18:31:00,30.0,11.0,-100.00,SW,236,5.0,10.0,44,0.00,,,0.00,173.000000,,2013-02-26 01:31:00,
2013-02-25 18:52:00,26.0,12.0,-100.00,West,262,2.0,8.0,56,0.00,,,0.00,6.000000,,2013-02-26 01:52:00,
2013-02-25 19:01:00,26.0,12.0,-100.00,West,262,2.0,8.0,56,0.00,,,0.00,6.000000,,2013-02-26 02:01:00,
2013-02-25 19:11:00,26.0,12.0,-100.00,West,262,2.0,8.0,56,0.00,,,0.00,6.000000,,2013-02-26 02:11:00,
2013-02-25 19:21:00,26.0,12.0,-100.00,West,262,2.0,8.0,56,0.00,,,0.00,6.000000,,2013-02-26 02:21:00,
2013-02-25 19:31:00,26.0,12.0,-100.00,West,262,2.0,8.0,56,0.00,,,0.00,6.000000,,2013-02-26 02:31:00,
2013-02-25 19:52:00,25.0,9.0,-100.00,NW,319,2.0,5.0,50,0.00,,,0.00,0.000000,,2013-02-26 02:52:00,
2013-02-25 20:01:00,25.0,9.0,-100.00,NW,319,2.0,5.0,50,0.00,,,0.00,0.000000,,2013-02-26 03:01:00,
2013-02-25 20:11:00,25.0,9.0,-100.00,NW,319,2.0,5.0,50,0.00,,,0.00,0.000000,,2013-02-26 03:11:00,
2013-02-25 20:21:00,25.0,9.0,-100.00,NW,319,2.0,5.0,50,0.00,,,0.00,0.000000,,2013-02-26 03:21:00,
2013-02-25 20:31:00,25.0,9.0,-100.00,NW,319,2.0,5.0,50,0.00,,,0.00,0.000000,,2013-02-26 03:31:00,
2013-02-25 20:52:00,25.0,11.0,-100.00,WNW,303,1.0,7.0,54,0.00,,,0.00,0.000000,,2013-02-26 03:52:00,
2013-02-25 21:01:00,25.0,11.0,-100.00,WNW,303,1.0,7.0,54,0.00,,,0.00,0.000000,,2013-02-26 04:01:00,
2013-02-25 21:11:00,25.0,11.0,-100.00,WNW,303,1.0,7.0,54,0.00,,,0.00,0.000000,,2013-02-26 04:11:00,
2013-02-25 21:21:00,25.0,11.0,-100.00,WNW,303,1.0,7.0,54,0.00,,,0.00,0.000000,,2013-02-26 04:21:00,
2013-02-25 21:31:00,25.0,11.0,-100.00,WNW,303,1.0,7.0,54,0.00,,,0.00,0.000000,,2013-02-26 04:31:00,
2013-02-25 21:52:00,25.0,7.0,-100.00,WNW,287,1.0,5.0,45,0.00,,,0.00,0.000000,,2013-02-26 04:52:00,
2013-02-25 22:01:00,25.0,7.0,-100.00,WNW,287,1.0,5.0,45,0.00,,,0.00,0.000000,,2013-02-26 05:01:00,
2013-02-25 22:11:00,25.0,7.0,-100.00,WNW,287,1.0,5.0,45,0.00,,,0.00,0.000000,,2013-02-26 05:11:00,
2013-02-25 22:21:00,25.0,7.0,-100.00,WNW,287,1.0,5.0,45,0.00,,,0.00,0.000000,,2013-02-26 05:21:00,
2013-02-25 22:31:00,25.0,7.0,-100.00,WNW,287,1.0,5.0,45,0.00,,,0.00,0.000000,,2013-02-26 05:31:00,
2013-02-25 22:52:00,24.0,8.0,-100.00,NE,50,2.0,4.0,49,0.00,,,-99.99,0.000000,,2013-02-26 05:52:00,
2013-02-25 23:01:00,24.0,8.0,-100.00,NE,50,2.0,4.0,49,0.00,,,-99.99,0.000000,,2013-02-26 06:01:00,
2013-02-25 23:11:00,24.0,8.0,-100.00,NE,50,2.0,4.0,49,0.00,,,-99.99,0.000000,,2013-02-26 06:11:00,
2013-02-25 23:21:00,24.0,8.0,-100.00,NE,50,2.0,4.0,49,0.00,,,-99.99,0.000000,,2013-02-26 06:21:00,
2013-02-25 23:31:00,24.0,8.0,-100.00,NE,50,2.0,4.0,49,0.00,,,-99.99,0.000000,,2013-02-26 06:31:00,
2013-02-25 23:52:00,24.0,10.0,-100.00,East,80,3.0,5.0,55,0.00,,,0.00,0.000000,,2013-02-26 06:52:00,